createdAt,value
2018-07-27T00:01:48.688Z,18.99
2018-07-27T00:04:19.425Z,18.97
2018-07-27T00:06:50.825Z,18.85
2018-07-27T00:09:21.502Z,18.81
2018-07-27T00:11:51.542Z,18.78
2018-07-27T00:14:21.603Z,18.79
2018-07-27T00:16:52.123Z,18.78
2018-07-27T00:19:22.827Z,18.77
2018-07-27T00:21:53.323Z,18.77
2018-07-27T00:24:24.233Z,18.80
2018-07-27T00:26:56.407Z,18.76
2018-07-27T00:29:27.162Z,18.71
2018-07-27T00:31:57.639Z,18.60
2018-07-27T00:34:28.301Z,18.50
2018-07-27T00:36:58.757Z,18.47
2018-07-27T00:39:29.280Z,18.47
2018-07-27T00:41:59.929Z,18.42
2018-07-27T00:44:31.061Z,18.32
2018-07-27T00:47:02.245Z,18.32
2018-07-27T00:49:33.025Z,18.30
2018-07-27T00:52:03.646Z,18.30
2018-07-27T00:54:34.114Z,18.23
2018-07-27T00:57:04.856Z,18.17
2018-07-27T00:59:35.521Z,18.10
2018-07-27T01:02:06.262Z,18.07
2018-07-27T01:04:36.935Z,18.02
2018-07-27T01:07:08.136Z,17.94
2018-07-27T01:09:38.201Z,17.92
2018-07-27T01:12:08.947Z,17.93
2018-07-27T01:14:39.564Z,17.96
2018-07-27T01:17:11.165Z,18.01
2018-07-27T01:19:41.855Z,18.02
2018-07-27T01:22:12.496Z,18.06
2018-07-27T01:24:42.986Z,18.11
2018-07-27T01:27:13.490Z,18.14
2018-07-27T01:29:44.239Z,18.14
2018-07-27T01:32:14.750Z,18.15
2018-07-27T01:34:45.740Z,18.09
2018-07-27T01:37:16.959Z,17.92
2018-07-27T01:39:47.389Z,17.70
2018-07-27T01:42:18.073Z,17.55
2018-07-27T01:44:48.078Z,17.43
2018-07-27T01:47:18.599Z,17.35
2018-07-27T01:49:49.099Z,17.30
2018-07-27T01:52:19.928Z,17.25
2018-07-27T01:54:50.553Z,17.23
2018-07-27T01:57:21.119Z,17.22
2018-07-27T01:59:51.546Z,17.28
2018-07-27T02:02:22.157Z,17.29
2018-07-27T02:04:53.157Z,17.29
2018-07-27T02:07:25.279Z,17.27
2018-07-27T02:09:55.999Z,17.27
2018-07-27T02:12:26.590Z,17.31
2018-07-27T02:14:57.163Z,17.34
2018-07-27T02:17:27.660Z,17.42
2018-07-27T02:19:58.246Z,17.39
2018-07-27T02:22:28.697Z,17.37
2018-07-27T02:24:58.662Z,17.36
2018-07-27T02:27:29.231Z,17.32
2018-07-27T02:29:59.822Z,17.32
2018-07-27T02:32:30.547Z,17.31
2018-07-27T02:35:02.302Z,17.28
2018-07-27T02:37:32.874Z,17.28
2018-07-27T02:40:03.905Z,17.27
2018-07-27T02:42:34.480Z,17.31
2018-07-27T02:45:05.181Z,17.33
2018-07-27T02:47:35.771Z,17.32
2018-07-27T02:50:06.877Z,17.34
2018-07-27T02:52:37.360Z,17.35
2018-07-27T02:55:07.858Z,17.27
2018-07-27T02:57:38.372Z,17.20
2018-07-27T03:00:10.049Z,17.18
2018-07-27T03:02:41.251Z,17.11
2018-07-27T03:05:11.726Z,17.10
2018-07-27T03:07:42.296Z,17.09
2018-07-27T03:10:12.694Z,17.10
2018-07-27T03:12:43.319Z,17.07
2018-07-27T03:15:13.910Z,17.01
2018-07-27T03:17:44.378Z,16.99
2018-07-27T03:20:15.260Z,16.98
2018-07-27T03:22:45.820Z,17.00
2018-07-27T03:25:16.261Z,16.97
2018-07-27T03:27:47.360Z,16.91
2018-07-27T03:30:18.684Z,16.86
2018-07-27T03:32:49.269Z,16.83
2018-07-27T03:35:20.100Z,16.75
2018-07-27T03:37:50.743Z,16.69
2018-07-27T03:40:21.196Z,16.68
2018-07-27T03:42:51.788Z,16.68
2018-07-27T03:45:22.335Z,16.63
2018-07-27T03:47:54.164Z,16.67
2018-07-27T03:50:25.524Z,16.72
2018-07-27T03:52:56.056Z,16.76
2018-07-27T03:55:26.671Z,16.83
2018-07-27T03:57:57.925Z,16.85
2018-07-27T04:00:28.500Z,16.89
2018-07-27T04:02:59.162Z,16.93
2018-07-27T04:05:30.037Z,16.93
2018-07-27T04:08:00.617Z,16.98
2018-07-27T04:10:31.079Z,17.00
2018-07-27T04:13:01.836Z,17.03
2018-07-27T04:15:33.877Z,17.09
2018-07-27T04:18:04.439Z,17.04
2018-07-27T04:20:34.991Z,17.01
2018-07-27T04:23:06.178Z,17.05
2018-07-27T04:25:36.860Z,17.14
2018-07-27T04:28:07.722Z,17.34
2018-07-27T04:30:39.011Z,17.47
2018-07-27T04:33:09.658Z,17.69
2018-07-27T04:35:40.287Z,17.84
2018-07-27T04:38:10.698Z,17.87
2018-07-27T04:40:41.631Z,18.01
2018-07-27T04:43:12.812Z,18.14
2018-07-27T04:45:43.419Z,18.09
2018-07-27T04:48:14.127Z,18.13
2018-07-27T04:50:44.715Z,17.64
2018-07-27T04:53:15.401Z,17.82
2018-07-27T04:55:45.992Z,17.96
2018-07-27T04:58:16.544Z,18.13
2018-07-27T05:00:48.318Z,18.20
2018-07-27T05:03:19.542Z,18.36
2018-07-27T05:05:49.968Z,18.48
2018-07-27T05:08:21.530Z,18.58
2018-07-27T05:10:51.953Z,18.68
2018-07-27T05:13:22.586Z,18.87
2018-07-27T05:15:53.168Z,19.07
2018-07-27T05:18:24.006Z,19.18
2018-07-27T05:20:56.119Z,19.23
2018-07-27T05:23:28.027Z,19.35
2018-07-27T05:25:59.613Z,19.45
2018-07-27T05:28:31.163Z,19.55
2018-07-27T05:31:02.658Z,19.58
2018-07-27T05:33:33.420Z,19.72
2018-07-27T05:36:04.530Z,19.90
2018-07-27T05:38:35.245Z,20.08
2018-07-27T05:41:06.330Z,20.22
2018-07-27T05:43:36.992Z,20.41
2018-07-27T05:46:08.591Z,20.51
2018-07-27T05:48:40.095Z,20.54
2018-07-27T05:51:11.133Z,20.68
2018-07-27T05:53:43.434Z,20.77
2018-07-27T05:56:14.811Z,20.81
2018-07-27T05:58:47.151Z,20.88
2018-07-27T06:01:17.883Z,20.96
2018-07-27T06:03:48.828Z,21.00
2018-07-27T06:06:18.965Z,21.03
2018-07-27T06:08:50.608Z,21.12
2018-07-27T06:11:22.059Z,21.26
2018-07-27T06:13:52.817Z,21.33
2018-07-27T06:16:23.633Z,21.34
2018-07-27T06:18:55.051Z,21.56
2018-07-27T06:21:25.928Z,22.04
2018-07-27T06:23:56.628Z,22.75
2018-07-27T06:26:27.769Z,23.78
2018-07-27T06:28:58.091Z,24.93
2018-07-27T06:31:29.448Z,25.93
2018-07-27T06:34:00.189Z,26.62
2018-07-27T06:36:31.069Z,27.25
2018-07-27T06:39:01.722Z,27.64
2018-07-27T06:41:32.945Z,27.48
2018-07-27T06:44:04.764Z,27.63
2018-07-27T06:46:35.526Z,27.94
2018-07-27T06:49:06.249Z,27.99
2018-07-27T06:51:37.103Z,28.17
2018-07-27T06:54:07.835Z,28.69
2018-07-27T06:56:38.677Z,28.87
2018-07-27T06:59:09.447Z,28.94
2018-07-27T07:01:40.267Z,28.83
2018-07-27T07:04:11.693Z,28.99
2018-07-27T07:06:43.120Z,29.53
2018-07-27T07:09:14.000Z,29.88
2018-07-27T07:11:44.713Z,30.11
2018-07-27T07:14:16.882Z,30.34
2018-07-27T07:16:49.305Z,30.45
2018-07-27T07:19:20.122Z,30.46
2018-07-27T07:21:50.868Z,30.75
2018-07-27T07:24:22.605Z,30.41
2018-07-27T07:26:54.796Z,30.67
2018-07-27T07:29:26.296Z,30.94
2018-07-27T07:31:57.420Z,31.15
2018-07-27T07:34:28.229Z,31.92
2018-07-27T07:36:59.117Z,32.19
2018-07-27T07:39:30.058Z,32.64
2018-07-27T07:42:00.965Z,33.13
2018-07-27T07:44:32.015Z,32.43
2018-07-27T07:47:04.816Z,31.94
2018-07-27T07:49:35.473Z,31.43
2018-07-27T07:52:06.383Z,31.84
2018-07-27T07:54:37.050Z,33.33
2018-07-27T07:57:07.333Z,33.61
2018-07-27T07:59:38.837Z,33.84
2018-07-27T08:02:09.969Z,33.94
2018-07-27T08:04:41.563Z,33.96
2018-07-27T08:07:12.452Z,34.10
2018-07-27T08:09:43.135Z,33.92
2018-07-27T08:12:13.844Z,34.57
2018-07-27T08:14:43.947Z,34.72
2018-07-27T08:17:14.660Z,34.90
2018-07-27T08:19:45.453Z,34.62
2018-07-27T08:22:16.594Z,34.38
2018-07-27T08:24:48.428Z,34.59
2018-07-27T08:27:19.232Z,35.30
2018-07-27T08:29:50.347Z,35.66
2018-07-27T08:32:20.646Z,36.08
2018-07-27T08:34:52.916Z,36.31
2018-07-27T08:37:24.768Z,36.07
2018-07-27T08:39:55.469Z,36.18
2018-07-27T08:42:27.031Z,35.87
2018-07-27T08:44:59.261Z,35.79
2018-07-27T08:47:30.433Z,35.47
2018-07-27T08:50:00.772Z,36.57
2018-07-27T08:52:31.826Z,37.31
2018-07-27T08:55:02.785Z,37.15
2018-07-27T08:57:34.402Z,36.75
2018-07-27T09:00:07.209Z,37.32
2018-07-27T09:02:38.338Z,37.76
2018-07-27T09:05:09.641Z,37.57
2018-07-27T09:07:40.654Z,38.15
2018-07-27T09:10:11.465Z,38.62
2018-07-27T09:12:42.034Z,38.50
2018-07-27T09:15:13.387Z,39.25
2018-07-27T09:17:44.275Z,39.14
2018-07-27T09:20:16.246Z,38.71
2018-07-27T09:22:47.132Z,39.26
2018-07-27T09:25:18.673Z,39.35
2018-07-27T09:27:49.327Z,38.80
2018-07-27T09:30:19.532Z,39.01
2018-07-27T09:32:50.368Z,39.17
2018-07-27T09:35:21.126Z,38.82
2018-07-27T09:37:52.727Z,38.67
2018-07-27T09:40:25.285Z,38.46
2018-07-27T09:42:56.229Z,39.19
2018-07-27T09:45:27.030Z,39.42
2018-07-27T09:47:57.959Z,39.27
2018-07-27T09:50:28.777Z,39.30
2018-07-27T09:52:59.099Z,39.42
2018-07-27T09:55:30.051Z,39.13
2018-07-27T09:58:02.200Z,39.31
2018-07-27T10:00:38.753Z,39.75
2018-07-27T10:03:11.629Z,40.56
2018-07-27T10:05:42.787Z,40.87
2018-07-27T10:08:15.003Z,40.68
2018-07-27T10:10:46.315Z,40.48
2018-07-27T10:13:20.169Z,39.81
2018-07-27T10:15:51.064Z,39.76
2018-07-27T10:18:22.181Z,40.27
2018-07-27T10:20:53.420Z,40.21
2018-07-27T10:23:25.262Z,40.79
2018-07-27T10:25:57.166Z,40.97
2018-07-27T10:28:28.796Z,41.13
2018-07-27T10:30:59.839Z,41.06
2018-07-27T10:33:31.125Z,40.65
2018-07-27T10:36:01.865Z,40.65
2018-07-27T10:38:33.272Z,40.71
2018-07-27T10:41:04.010Z,41.23
2018-07-27T10:43:34.715Z,40.88
2018-07-27T10:46:05.970Z,40.89
2018-07-27T10:48:37.765Z,40.52
2018-07-27T10:51:08.898Z,40.47
2018-07-27T10:53:40.237Z,40.43
2018-07-27T10:56:11.624Z,40.17
2018-07-27T10:58:42.605Z,40.14
2018-07-27T11:01:13.802Z,40.04
2018-07-27T11:03:44.602Z,40.14
2018-07-27T11:06:16.538Z,39.96
2018-07-27T11:08:48.196Z,40.53
2018-07-27T11:11:18.912Z,40.80
2018-07-27T11:13:49.707Z,41.25
2018-07-27T11:16:20.487Z,40.77
2018-07-27T11:18:50.584Z,40.35
2018-07-27T11:21:21.251Z,40.54
2018-07-27T11:23:52.046Z,40.63
2018-07-27T11:26:23.896Z,40.66
2018-07-27T11:28:54.992Z,41.06
2018-07-27T11:31:26.694Z,41.02
2018-07-27T11:33:57.452Z,40.83
2018-07-27T11:36:28.290Z,40.58
2018-07-27T11:38:59.008Z,40.48
2018-07-27T11:41:29.725Z,39.80
2018-07-27T11:44:01.503Z,39.77
2018-07-27T11:46:33.100Z,39.74
2018-07-27T11:49:04.252Z,40.32
2018-07-27T11:51:34.954Z,40.91
2018-07-27T11:54:05.888Z,41.12
2018-07-27T11:56:36.102Z,40.32
2018-07-27T11:59:06.808Z,40.50
2018-07-27T12:01:37.631Z,40.51
2018-07-27T12:04:09.156Z,40.68
2018-07-27T12:06:41.402Z,40.16
2018-07-27T12:09:12.987Z,40.38
2018-07-27T12:11:43.935Z,40.75
2018-07-27T12:14:15.480Z,40.60
2018-07-27T12:16:46.392Z,39.77
2018-07-27T12:19:17.445Z,40.13
2018-07-27T12:21:48.618Z,40.44
2018-07-27T12:24:21.744Z,41.16
2018-07-27T12:26:53.141Z,41.12
2018-07-27T12:29:25.092Z,40.61
2018-07-27T12:31:55.949Z,41.17
2018-07-27T12:34:26.786Z,41.37
2018-07-27T12:36:57.824Z,41.45
2018-07-27T12:39:28.588Z,39.55
2018-07-27T12:42:00.418Z,38.80
2018-07-27T12:44:32.033Z,38.53
2018-07-27T12:47:02.920Z,38.72
2018-07-27T12:49:33.973Z,38.97
2018-07-27T12:52:05.360Z,38.56
2018-07-27T12:54:37.001Z,39.07
2018-07-27T12:57:09.468Z,39.53
2018-07-27T12:59:41.041Z,40.27
2018-07-27T13:02:12.643Z,40.25
2018-07-27T13:04:43.853Z,40.31
2018-07-27T13:07:14.833Z,40.13
2018-07-27T13:09:45.235Z,39.47
2018-07-27T13:12:16.187Z,39.27
2018-07-27T13:14:47.765Z,39.41
2018-07-27T13:17:18.614Z,39.74
2018-07-27T13:19:50.234Z,39.88
2018-07-27T13:22:21.852Z,40.52
2018-07-27T13:27:26.325Z,38.31
2018-07-27T13:29:57.154Z,38.22
2018-07-27T13:32:28.235Z,38.01
2018-07-27T13:35:01.007Z,38.59
2018-07-27T13:37:34.523Z,38.73
2018-07-27T13:40:06.733Z,39.16
2018-07-27T13:42:38.221Z,38.23
2018-07-27T13:45:09.237Z,38.88
2018-07-27T13:47:40.489Z,39.60
2018-07-27T13:50:11.939Z,39.93
2018-07-27T13:52:43.790Z,39.28
2018-07-27T13:55:15.417Z,39.58
2018-07-27T13:57:46.253Z,39.38
2018-07-27T14:00:16.944Z,39.20
2018-07-27T14:02:47.602Z,38.93
2018-07-27T14:05:18.786Z,39.39
2018-07-27T14:07:49.529Z,39.04
2018-07-27T14:10:20.222Z,39.55
2018-07-27T14:12:52.155Z,39.72
2018-07-27T14:15:24.367Z,39.92
2018-07-27T14:17:57.018Z,39.71
2018-07-27T14:20:27.894Z,39.01
2018-07-27T14:22:58.774Z,38.33
2018-07-27T14:25:30.715Z,37.80
2018-07-27T14:28:01.802Z,34.44
2018-07-27T14:30:33.771Z,33.38
2018-07-27T14:33:04.700Z,34.27
2018-07-27T14:35:36.458Z,34.75
2018-07-27T14:38:08.135Z,35.38
2018-07-27T14:40:38.740Z,35.80
2018-07-27T14:43:09.870Z,34.59
2018-07-27T14:45:41.510Z,35.66
2018-07-27T14:48:14.392Z,36.46
2018-07-27T14:50:45.363Z,36.37
2018-07-27T14:53:16.077Z,35.02
2018-07-27T14:55:47.143Z,35.07
2018-07-27T14:58:18.660Z,34.05
2018-07-27T15:00:49.171Z,33.73
2018-07-27T15:03:19.990Z,32.95
2018-07-27T15:05:51.272Z,33.56
2018-07-27T15:08:23.202Z,33.91
2018-07-27T15:10:54.559Z,34.07
2018-07-27T15:13:26.875Z,33.56
2018-07-27T15:15:58.051Z,34.27
2018-07-27T15:18:29.245Z,34.04
2018-07-27T15:21:01.576Z,33.53
2018-07-27T15:23:33.467Z,33.24
2018-07-27T15:26:06.106Z,32.82
2018-07-27T15:28:37.146Z,33.36
2018-07-27T15:31:08.151Z,33.83
2018-07-27T15:33:38.806Z,34.11
2018-07-27T15:36:09.348Z,33.45
2018-07-27T15:38:40.303Z,33.33
2018-07-27T15:41:11.528Z,33.06
2018-07-27T15:43:43.401Z,33.48
2018-07-27T15:46:15.359Z,33.59
2018-07-27T15:48:46.521Z,33.70
2018-07-27T15:51:17.217Z,33.65
2018-07-27T15:53:50.922Z,33.69
2018-07-27T15:56:22.311Z,33.37
2018-07-27T15:58:53.694Z,33.37
2018-07-27T16:01:24.819Z,33.06
2018-07-27T16:03:55.758Z,32.79
2018-07-27T16:06:26.510Z,32.34
2018-07-27T16:08:58.123Z,32.06
2018-07-27T16:11:28.756Z,31.90
2018-07-27T16:13:59.596Z,31.63
2018-07-27T16:16:31.003Z,31.56
2018-07-27T16:19:03.204Z,31.36
2018-07-27T16:21:34.782Z,31.46
2018-07-27T16:24:05.588Z,31.33
2018-07-27T16:26:36.239Z,31.09
2018-07-27T16:29:06.897Z,31.07
2018-07-27T16:31:37.731Z,30.96
2018-07-27T16:34:08.775Z,30.95
2018-07-27T16:36:40.095Z,29.56
2018-07-27T16:39:11.936Z,28.95
2018-07-27T16:41:42.774Z,27.73
2018-07-27T16:44:13.573Z,26.12
2018-07-27T16:46:44.371Z,24.31
2018-07-27T16:49:15.280Z,23.40
2018-07-27T16:51:46.720Z,23.01
2018-07-27T16:54:18.462Z,22.80
2018-07-27T16:56:50.206Z,22.79
2018-07-27T16:59:20.900Z,23.12
2018-07-27T17:01:53.412Z,23.49
2018-07-27T17:04:24.557Z,23.84
2018-07-27T17:06:58.908Z,24.03
2018-07-27T17:09:30.865Z,24.13
2018-07-27T17:12:03.204Z,24.17
2018-07-27T17:14:35.636Z,24.08
2018-07-27T17:17:06.900Z,23.96
2018-07-27T17:19:37.788Z,23.83
2018-07-27T17:22:08.810Z,23.88
2018-07-27T17:24:39.685Z,24.06
2018-07-27T17:27:11.773Z,24.18
2018-07-27T17:29:43.874Z,24.22
2018-07-27T17:32:15.639Z,24.37
2018-07-27T17:34:46.329Z,24.46
2018-07-27T17:37:17.275Z,24.59
2018-07-27T17:39:49.189Z,24.98
2018-07-27T17:42:19.802Z,25.01
2018-07-27T17:44:52.767Z,25.25
2018-07-27T17:47:25.963Z,25.42
2018-07-27T17:49:57.593Z,25.62
2018-07-27T17:52:29.130Z,25.68
2018-07-27T17:55:00.387Z,25.60
2018-07-27T17:57:32.559Z,25.61
2018-07-27T18:00:03.533Z,25.30
2018-07-27T18:02:35.728Z,24.72
2018-07-27T18:05:06.904Z,24.28
2018-07-27T18:07:37.654Z,24.32
2018-07-27T18:10:08.851Z,24.31
2018-07-27T18:12:39.974Z,24.37
2018-07-27T18:15:12.265Z,24.12
2018-07-27T18:17:43.398Z,23.87
2018-07-27T18:20:15.275Z,24.00
2018-07-27T18:22:48.869Z,23.99
2018-07-27T18:25:20.524Z,23.79
2018-07-27T18:27:52.655Z,23.47
2018-07-27T18:30:23.959Z,23.15
2018-07-27T18:32:54.515Z,23.00
2018-07-27T18:35:25.829Z,22.88
2018-07-27T18:37:58.692Z,22.85
2018-07-27T18:40:29.563Z,22.82
2018-07-27T18:43:01.267Z,22.78
2018-07-27T18:45:34.743Z,22.74
2018-07-27T18:48:05.546Z,22.64
2018-07-27T18:50:37.107Z,22.56
2018-07-27T18:53:09.446Z,22.54
2018-07-27T18:55:41.069Z,22.58
2018-07-27T18:58:12.034Z,22.66
2018-07-27T19:00:44.099Z,22.65
2018-07-27T19:03:15.921Z,22.70
2018-07-27T19:05:47.018Z,22.71
2018-07-27T19:08:18.591Z,22.74
2018-07-27T19:10:51.315Z,22.76
2018-07-27T19:13:22.263Z,22.62
2018-07-27T19:15:53.954Z,22.54
2018-07-27T19:18:25.352Z,22.52
2018-07-27T19:20:56.164Z,22.53
2018-07-27T19:23:27.195Z,22.52
2018-07-27T19:25:57.904Z,22.48
2018-07-27T19:28:29.748Z,22.33
2018-07-27T19:31:01.626Z,22.36
2018-07-27T19:33:33.720Z,22.47
2018-07-27T19:36:06.143Z,22.51
2018-07-27T19:38:38.388Z,22.44
2018-07-27T19:41:09.302Z,22.43
2018-07-27T19:43:40.915Z,22.44
2018-07-27T19:46:11.807Z,22.48
2018-07-27T19:48:42.903Z,22.45
2018-07-27T19:51:13.341Z,22.47
2018-07-27T19:53:44.205Z,22.42
2018-07-27T19:56:14.907Z,22.44
2018-07-27T19:58:47.946Z,22.35
2018-07-27T20:01:20.606Z,22.29
2018-07-27T20:03:51.738Z,22.23
2018-07-27T20:06:22.521Z,22.22
2018-07-27T20:08:53.307Z,22.24
2018-07-27T20:11:24.669Z,22.26
2018-07-27T20:13:55.633Z,22.33
2018-07-27T20:16:27.068Z,22.32
2018-07-27T20:19:00.872Z,22.32
2018-07-27T20:21:31.725Z,22.17
2018-07-27T20:24:02.394Z,22.12
2018-07-27T20:26:33.135Z,22.12
2018-07-27T20:29:04.212Z,22.02
2018-07-27T20:31:35.822Z,22.03
2018-07-27T20:34:07.054Z,22.02
2018-07-27T20:36:39.872Z,21.98
2018-07-27T20:39:14.514Z,22.00
2018-07-27T20:41:46.534Z,22.04
2018-07-27T20:44:17.935Z,22.06
2018-07-27T20:46:49.169Z,22.06
2018-07-27T20:49:20.550Z,22.05
2018-07-27T20:51:51.383Z,21.96
2018-07-27T20:54:22.160Z,21.91
2018-07-27T20:56:52.862Z,21.86
2018-07-27T20:59:23.598Z,21.83
2018-07-27T21:01:54.647Z,21.78
2018-07-27T21:04:25.282Z,21.78
2018-07-27T21:06:56.566Z,21.80
2018-07-27T21:09:27.639Z,21.78
2018-07-27T21:11:58.416Z,21.79
2018-07-27T21:14:29.369Z,21.76
2018-07-27T21:17:01.060Z,21.73
2018-07-27T21:19:31.842Z,21.60
2018-07-27T21:22:02.827Z,21.53
2018-07-27T21:24:35.879Z,21.53
2018-07-27T21:27:06.634Z,21.51
2018-07-27T21:29:37.340Z,21.47
2018-07-27T21:32:08.733Z,21.50
2018-07-27T21:34:39.826Z,21.52
2018-07-27T21:37:11.615Z,21.54
2018-07-27T21:39:43.972Z,21.53
2018-07-27T21:42:15.116Z,21.53
2018-07-27T21:44:45.991Z,21.45
2018-07-27T21:47:16.800Z,21.41
2018-07-27T21:49:47.820Z,21.32
2018-07-27T21:52:18.510Z,21.24
2018-07-27T21:54:49.927Z,21.20
2018-07-27T21:57:21.763Z,21.16
2018-07-27T21:59:52.739Z,21.08
2018-07-27T22:02:23.618Z,21.12
2018-07-27T22:04:54.519Z,21.12
2018-07-27T22:07:25.809Z,21.13
2018-07-27T22:09:56.687Z,21.11
2018-07-27T22:12:27.698Z,21.05
2018-07-27T22:14:58.754Z,20.84
2018-07-27T22:17:29.440Z,20.81
2018-07-27T22:20:00.453Z,20.87
2018-07-27T22:22:32.164Z,21.00
2018-07-27T22:25:03.642Z,21.00
2018-07-27T22:27:34.486Z,20.96
2018-07-27T22:30:06.684Z,21.03
2018-07-27T22:32:37.328Z,21.01
2018-07-27T22:35:08.413Z,20.97
2018-07-27T22:37:40.604Z,20.90
2018-07-27T22:40:12.018Z,20.90
2018-07-27T22:42:42.685Z,20.86
2018-07-27T22:45:13.333Z,20.89
2018-07-27T22:47:43.874Z,20.91
2018-07-27T22:50:15.347Z,20.91
2018-07-27T22:52:46.435Z,20.90
2018-07-27T22:55:16.976Z,20.86
2018-07-27T22:57:47.975Z,20.83
2018-07-27T23:00:18.858Z,20.85
2018-07-27T23:02:49.298Z,20.77
2018-07-27T23:05:20.037Z,20.79
2018-07-27T23:07:51.892Z,20.76
2018-07-27T23:10:22.705Z,20.76
2018-07-27T23:12:53.423Z,20.76
2018-07-27T23:15:24.682Z,20.74
2018-07-27T23:17:55.501Z,20.69
2018-07-27T23:20:26.029Z,20.64
2018-07-27T23:22:56.483Z,20.61
2018-07-27T23:25:27.503Z,20.57
2018-07-27T23:27:58.145Z,20.60
2018-07-27T23:30:28.703Z,20.59
2018-07-27T23:32:59.933Z,20.58
2018-07-27T23:35:30.425Z,20.58
2018-07-27T23:38:01.967Z,20.52
2018-07-27T23:40:32.735Z,20.47
2018-07-27T23:43:03.368Z,20.39
2018-07-27T23:45:34.345Z,20.35
2018-07-27T23:48:05.590Z,20.32
2018-07-27T23:50:36.749Z,20.32
2018-07-27T23:53:09.140Z,20.32
2018-07-27T23:55:39.779Z,20.28
2018-07-27T23:58:10.478Z,20.24
